createdAt,value
2022-09-28T00:00:53.413Z,99337.08
2022-09-28T00:03:23.997Z,99337.44
2022-09-28T00:05:54.641Z,99333.94
2022-09-28T00:08:24.813Z,99333.04
2022-09-28T00:10:55.496Z,99331.83
2022-09-28T00:13:25.595Z,99330.19
2022-09-28T00:15:55.862Z,99327.32
2022-09-28T00:18:26.396Z,99326.68
2022-09-28T00:20:56.777Z,99327.59
2022-09-28T00:23:27.313Z,99329.16
2022-09-28T00:25:57.859Z,99327.44
2022-09-28T00:28:28.500Z,99327.85
2022-09-28T00:30:59.217Z,99326.18
2022-09-28T00:33:29.758Z,99323.73
2022-09-28T00:36:00.292Z,99326.60
2022-09-28T00:38:30.896Z,99324.47
2022-09-28T00:41:01.204Z,99322.41
2022-09-28T00:43:31.765Z,99322.56
2022-09-28T00:46:02.371Z,99320.78
2022-09-28T00:48:32.806Z,99317.93
2022-09-28T00:51:03.435Z,99316.11
2022-09-28T00:53:33.933Z,99313.97
2022-09-28T00:56:04.562Z,99316.42
2022-09-28T00:58:35.061Z,99310.32
2022-09-28T01:01:05.641Z,99310.72
2022-09-28T01:03:36.165Z,99306.61
2022-09-28T01:06:06.832Z,99306.97
2022-09-28T01:08:37.264Z,99305.85
2022-09-28T01:11:07.545Z,99303.75
2022-09-28T01:13:38.150Z,99303.23
2022-09-28T01:16:08.745Z,99299.42
2022-09-28T01:18:38.989Z,99298.94
2022-09-28T01:21:09.598Z,99300.25
2022-09-28T01:23:40.111Z,99297.80
2022-09-28T01:26:10.306Z,99294.82
2022-09-28T01:28:40.941Z,99297.44
2022-09-28T01:31:11.548Z,99297.79
2022-09-28T01:33:41.706Z,99298.47
2022-09-28T01:36:12.275Z,99297.40
2022-09-28T01:38:42.692Z,99296.04
2022-09-28T01:41:13.165Z,99293.59
2022-09-28T01:43:43.498Z,99291.99
2022-09-28T01:46:14.248Z,99289.32
2022-09-28T01:48:44.647Z,99285.23
2022-09-28T01:51:15.532Z,99284.84
2022-09-28T01:53:45.735Z,99280.05
2022-09-28T01:56:16.510Z,99278.12
2022-09-28T01:58:46.628Z,99276.35
2022-09-28T02:01:17.483Z,99272.84
2022-09-28T02:03:47.422Z,99273.48
2022-09-28T02:06:18.189Z,99273.76
2022-09-28T02:08:48.229Z,99273.84
2022-09-28T02:11:18.441Z,99270.44
2022-09-28T02:13:49.088Z,99273.64
2022-09-28T02:16:19.071Z,99272.72
2022-09-28T02:18:49.599Z,99273.39
2022-09-28T02:21:20.367Z,99274.20
2022-09-28T02:23:50.989Z,99272.21
2022-09-28T02:26:21.193Z,99273.18
2022-09-28T02:28:51.507Z,99276.28
2022-09-28T02:31:22.111Z,99279.05
2022-09-28T02:33:52.632Z,99282.28
2022-09-28T02:36:23.487Z,99280.07
2022-09-28T02:38:53.771Z,99278.21
2022-09-28T02:41:24.026Z,99280.63
2022-09-28T02:43:54.223Z,99278.20
2022-09-28T02:46:24.288Z,99281.57
2022-09-28T02:49:10.389Z,99281.42
2022-09-28T02:51:25.448Z,99281.48
2022-09-28T02:53:56.044Z,99281.69
2022-09-28T02:56:26.892Z,99280.73
2022-09-28T02:58:57.713Z,99282.28
2022-09-28T03:01:27.712Z,99282.24
2022-09-28T03:03:58.431Z,99283.36
2022-09-28T03:06:28.811Z,99284.79
2022-09-28T03:08:59.163Z,99289.72
2022-09-28T03:11:29.902Z,99290.22
2022-09-28T03:14:00.500Z,99290.52
2022-09-28T03:16:30.742Z,99291.81
2022-09-28T03:19:00.972Z,99292.01
2022-09-28T03:21:31.510Z,99290.49
2022-09-28T03:24:01.803Z,99289.42
2022-09-28T03:26:32.557Z,99288.71
2022-09-28T03:29:03.225Z,99292.01
2022-09-28T03:31:33.909Z,99287.86
2022-09-28T03:34:04.473Z,99288.79
2022-09-28T03:36:34.664Z,99284.90
2022-09-28T03:39:05.517Z,99284.52
2022-09-28T03:41:36.407Z,99282.55
2022-09-28T03:44:06.982Z,99280.17
2022-09-28T03:46:37.157Z,99284.63
2022-09-28T03:49:07.948Z,99283.43
2022-09-28T03:51:38.144Z,99286.80
2022-09-28T03:54:08.486Z,99284.93
2022-09-28T03:56:38.673Z,99285.10
2022-09-28T03:59:08.994Z,99282.13
2022-09-28T04:01:39.927Z,99285.93
2022-09-28T04:04:09.897Z,99286.75
2022-09-28T04:06:40.324Z,99284.48
2022-09-28T04:09:10.831Z,99285.66
2022-09-28T04:11:59.764Z,99285.46
2022-09-28T04:14:11.484Z,99281.41
2022-09-28T04:16:42.341Z,99283.26
2022-09-28T04:19:12.552Z,99283.32
2022-09-28T04:21:43.040Z,99285.47
2022-09-28T04:24:13.135Z,99287.97
2022-09-28T04:26:43.319Z,99288.94
2022-09-28T04:29:13.775Z,99292.07
2022-09-28T04:31:43.958Z,99292.23
2022-09-28T04:34:14.160Z,99292.84
2022-09-28T04:36:44.866Z,99292.04
2022-09-28T04:39:15.485Z,99288.10
2022-09-28T04:41:46.030Z,99287.03
2022-09-28T04:44:15.985Z,99290.54
2022-09-28T04:46:46.496Z,99293.45
2022-09-28T04:49:17.015Z,99291.03
2022-09-28T04:51:47.598Z,99291.74
2022-09-28T04:54:18.204Z,99295.53
2022-09-28T04:56:48.205Z,99299.59
2022-09-28T04:59:19.045Z,99297.45
2022-09-28T05:01:49.125Z,99298.56
2022-09-28T05:04:22.373Z,99297.06
2022-09-28T05:06:49.880Z,99294.43
2022-09-28T05:09:20.155Z,99297.21
2022-09-28T05:11:50.737Z,99298.66
2022-09-28T05:14:21.378Z,99297.67
2022-09-28T05:16:52.198Z,99301.92
2022-09-28T05:19:22.453Z,99306.01
2022-09-28T05:21:53.326Z,99309.26
2022-09-28T05:24:24.152Z,99310.21
2022-09-28T05:26:54.479Z,99311.91
2022-09-28T05:29:26.417Z,99311.22
2022-09-28T05:31:55.666Z,99310.57
2022-09-28T05:34:25.888Z,99310.59
2022-09-28T05:36:56.543Z,99308.15
2022-09-28T05:39:26.868Z,99309.01
2022-09-28T05:41:56.725Z,99308.79
2022-09-28T05:44:27.331Z,99307.29
2022-09-28T05:46:57.667Z,99306.89
2022-09-28T05:49:28.059Z,99305.13
2022-09-28T05:51:58.854Z,99303.36
2022-09-28T05:54:29.691Z,99303.12
2022-09-28T05:56:59.925Z,99302.20
2022-09-28T05:59:30.614Z,99299.49
2022-09-28T06:02:00.630Z,99298.49
2022-09-28T06:04:31.480Z,99300.35
2022-09-28T06:07:02.015Z,99301.82
2022-09-28T06:09:32.530Z,99304.00
2022-09-28T06:12:03.143Z,99308.62
2022-09-28T06:14:34.061Z,99311.95
2022-09-28T06:17:04.246Z,99315.62
2022-09-28T06:19:34.814Z,99317.14
2022-09-28T06:22:05.442Z,99322.46
2022-09-28T06:24:35.867Z,99325.87
2022-09-28T06:27:06.039Z,99327.08
2022-09-28T06:29:36.336Z,99329.50
2022-09-28T06:32:06.518Z,99333.72
2022-09-28T06:34:37.229Z,99335.27
2022-09-28T06:37:08.029Z,99337.79
2022-09-28T06:39:38.447Z,99339.09
2022-09-28T06:42:08.471Z,99340.59
2022-09-28T06:44:39.158Z,99345.21
2022-09-28T06:47:09.708Z,99349.75
2022-09-28T06:49:40.600Z,99350.54
2022-09-28T06:52:11.399Z,99352.86
2022-09-28T06:54:42.298Z,99353.11
2022-09-28T06:57:13.085Z,99356.08
2022-09-28T06:59:43.164Z,99356.38
2022-09-28T07:02:14.085Z,99356.50
2022-09-28T07:04:44.744Z,99358.51
2022-09-28T07:07:15.581Z,99362.06
2022-09-28T07:09:50.330Z,99361.82
2022-09-28T07:12:16.662Z,99362.38
2022-09-28T07:14:48.325Z,99365.78
2022-09-28T07:17:17.543Z,99367.84
2022-09-28T07:19:47.533Z,99372.65
2022-09-28T07:22:19.581Z,99375.83
2022-09-28T07:24:48.187Z,99379.81
2022-09-28T07:27:18.897Z,99378.34
2022-09-28T07:29:48.903Z,99380.79
2022-09-28T07:32:19.198Z,99387.34
2022-09-28T07:34:50.231Z,99388.55
2022-09-28T07:37:20.492Z,99385.13
2022-09-28T07:39:51.160Z,99389.51
2022-09-28T07:42:21.895Z,99394.55
2022-09-28T07:44:52.168Z,99401.00
2022-09-28T07:47:22.841Z,99403.00
2022-09-28T07:49:53.030Z,99403.51
2022-09-28T07:52:23.817Z,99407.66
2022-09-28T07:54:54.133Z,99407.91
2022-09-28T07:59:55.299Z,99411.74
2022-09-28T08:02:25.602Z,99406.31
2022-09-28T08:04:55.869Z,99412.72
2022-09-28T08:07:26.554Z,99417.17
2022-09-28T08:09:56.981Z,99418.23
2022-09-28T08:12:27.262Z,99424.68
2022-09-28T08:14:57.309Z,99426.82
2022-09-28T08:17:27.846Z,99426.84
2022-09-28T08:19:58.103Z,99431.58
2022-09-28T08:22:28.660Z,99432.51
2022-09-28T08:24:59.241Z,99433.09
2022-09-28T08:27:29.778Z,99433.98
2022-09-28T08:29:59.774Z,99437.22
2022-09-28T08:32:29.995Z,99437.48
2022-09-28T08:35:00.396Z,99436.05
2022-09-28T08:37:31.281Z,99434.51
2022-09-28T08:40:01.726Z,99438.19
2022-09-28T08:42:31.837Z,99439.51
2022-09-28T08:45:02.445Z,99443.46
2022-09-28T08:47:32.884Z,99446.31
2022-09-28T08:50:03.416Z,99446.76
2022-09-28T08:52:33.561Z,99446.24
2022-09-28T08:55:04.066Z,99451.87
2022-09-28T08:57:34.256Z,99453.55
2022-09-28T09:00:09.564Z,99457.02
2022-09-28T09:02:35.937Z,99457.08
2022-09-28T09:05:06.455Z,99457.56
2022-09-28T09:07:36.445Z,99459.33
2022-09-28T09:10:07.050Z,99460.95
2022-09-28T09:12:37.174Z,99459.99
2022-09-28T09:15:08.066Z,99460.42
2022-09-28T09:17:38.605Z,99462.11
2022-09-28T09:20:09.020Z,99460.70
2022-09-28T09:22:39.053Z,99463.67
2022-09-28T09:25:09.808Z,99467.09
2022-09-28T09:27:40.357Z,99467.32
2022-09-28T09:30:10.679Z,99470.65
2022-09-28T09:32:41.139Z,99473.33
2022-09-28T09:35:11.431Z,99478.46
2022-09-28T09:37:42.158Z,99476.91
2022-09-28T09:40:12.959Z,99479.02
2022-09-28T09:42:43.454Z,99483.16
2022-09-28T09:45:13.559Z,99489.18
2022-09-28T09:47:44.172Z,99492.80
2022-09-28T09:50:14.367Z,99499.09
2022-09-28T09:52:45.100Z,99501.45
2022-09-28T09:55:15.914Z,99501.86
2022-09-28T09:57:46.331Z,99500.48
2022-09-28T10:00:16.617Z,99501.58
2022-09-28T10:02:47.168Z,99504.45
2022-09-28T10:05:17.909Z,99500.90
2022-09-28T10:07:48.071Z,99504.77
2022-09-28T10:10:18.786Z,99504.75
2022-09-28T10:12:49.638Z,99497.38
2022-09-28T10:15:19.328Z,99496.44
2022-09-28T10:17:49.897Z,99492.62
2022-09-28T10:20:20.103Z,99492.26
2022-09-28T10:22:50.632Z,99492.97
2022-09-28T10:25:20.901Z,99490.85
2022-09-28T10:27:51.063Z,99491.24
2022-09-28T10:30:21.626Z,99493.25
2022-09-28T10:32:52.137Z,99497.92
2022-09-28T10:35:22.639Z,99499.93
2022-09-28T10:37:53.127Z,99499.09
2022-09-28T10:40:23.669Z,99503.97
2022-09-28T10:42:53.852Z,99504.50
2022-09-28T10:45:24.394Z,99510.46
2022-09-28T10:47:54.869Z,99504.53
2022-09-28T10:50:25.129Z,99502.99
2022-09-28T10:52:55.237Z,99500.57
2022-09-28T10:55:26.033Z,99504.11
2022-09-28T10:57:56.536Z,99507.13
2022-09-28T11:00:27.059Z,99506.13
2022-09-28T11:02:57.606Z,99507.35
2022-09-28T11:05:28.107Z,99510.44
2022-09-28T11:07:58.536Z,99512.00
2022-09-28T11:10:28.798Z,99511.12
2022-09-28T11:12:59.297Z,99510.14
2022-09-28T11:15:29.826Z,99507.40
2022-09-28T11:18:00.300Z,99507.88
2022-09-28T11:20:30.832Z,99512.48
2022-09-28T11:23:01.332Z,99514.85
2022-09-28T11:25:31.507Z,99512.17
2022-09-28T11:28:01.993Z,99506.85
2022-09-28T11:30:32.570Z,99509.49
2022-09-28T11:33:03.127Z,99509.82
2022-09-28T11:35:33.667Z,99508.83
2022-09-28T11:38:03.936Z,99504.99
2022-09-28T11:40:34.505Z,99510.58
2022-09-28T11:45:35.401Z,99511.59
2022-09-28T11:48:05.935Z,99512.69
2022-09-28T11:50:36.419Z,99515.50
2022-09-28T11:53:06.857Z,99517.22
2022-09-28T11:55:37.139Z,99516.18
2022-09-28T11:58:07.521Z,99513.11
2022-09-28T12:00:38.074Z,99511.73
2022-09-28T12:03:08.647Z,99511.55
2022-09-28T12:05:38.986Z,99510.51
2022-09-28T12:08:09.408Z,99511.64
2022-09-28T12:10:43.359Z,99514.90
2022-09-28T12:13:10.345Z,99513.85
2022-09-28T12:16:07.502Z,99511.25
2022-09-28T12:18:11.314Z,99513.63
2022-09-28T12:20:41.746Z,99513.91
2022-09-28T12:23:12.200Z,99514.06
2022-09-28T12:25:42.683Z,99509.09
2022-09-28T12:28:13.141Z,99509.71
2022-09-28T12:30:43.721Z,99510.96
2022-09-28T12:33:14.115Z,99511.97
2022-09-28T12:35:44.614Z,99504.20
2022-09-28T12:38:15.017Z,99505.38
2022-09-28T12:40:45.564Z,99503.57
2022-09-28T12:43:15.941Z,99506.68
2022-09-28T12:46:09.848Z,99508.60
2022-09-28T12:48:16.860Z,99508.18
2022-09-28T12:50:54.670Z,99507.47
2022-09-28T12:53:17.784Z,99504.36
2022-09-28T12:55:48.092Z,99506.85
2022-09-28T12:58:18.334Z,99508.05
2022-09-28T13:00:49.039Z,99508.82
2022-09-28T13:03:19.551Z,99502.94
2022-09-28T13:05:50.093Z,99504.19
2022-09-28T13:08:20.679Z,99507.10
2022-09-28T13:10:51.150Z,99507.44
2022-09-28T13:13:21.698Z,99507.92
2022-09-28T13:15:52.104Z,99506.11
2022-09-28T13:18:22.461Z,99506.32
2022-09-28T13:20:53.306Z,99507.82
2022-09-28T13:23:23.376Z,99506.82
2022-09-28T13:25:53.821Z,99503.64
2022-09-28T13:28:26.996Z,99505.37
2022-09-28T13:30:54.855Z,99503.65
2022-09-28T13:33:25.199Z,99500.90
2022-09-28T13:35:55.711Z,99501.29
2022-09-28T13:38:26.206Z,99499.87
2022-09-28T13:40:56.588Z,99496.18
2022-09-28T13:43:27.029Z,99495.92
2022-09-28T13:45:57.555Z,99491.97
2022-09-28T13:48:27.913Z,99493.62
2022-09-28T13:50:58.463Z,99496.96
2022-09-28T13:53:28.780Z,99497.88
2022-09-28T13:55:59.219Z,99498.92
2022-09-28T13:58:29.638Z,99500.60
2022-09-28T14:01:00.093Z,99498.59
2022-09-28T14:03:30.512Z,99498.32
2022-09-28T14:06:00.948Z,99498.09
2022-09-28T14:08:31.460Z,99500.10
2022-09-28T14:11:01.881Z,99495.05
2022-09-28T14:13:32.245Z,99498.79
2022-09-28T14:16:02.724Z,99497.32
2022-09-28T14:18:33.067Z,99498.55
2022-09-28T14:21:03.630Z,99496.18
2022-09-28T14:23:34.188Z,99498.86
2022-09-28T14:26:04.357Z,99496.26
2022-09-28T14:28:34.795Z,99496.70
2022-09-28T14:31:05.356Z,99497.04
2022-09-28T14:33:35.621Z,99498.70
2022-09-28T14:36:05.754Z,99500.48
2022-09-28T14:38:36.143Z,99501.44
2022-09-28T14:41:06.777Z,99508.14
2022-09-28T14:43:36.959Z,99510.18
2022-09-28T14:46:07.402Z,99511.55
2022-09-28T14:48:37.849Z,99513.10
2022-09-28T14:51:08.267Z,99514.00
2022-09-28T14:53:38.623Z,99516.72
2022-09-28T14:56:09.025Z,99516.06
2022-09-28T14:58:39.426Z,99514.94
2022-09-28T15:01:09.838Z,99517.65
2022-09-28T15:03:40.189Z,99517.57
2022-09-28T15:06:10.604Z,99515.77
2022-09-28T15:08:41.012Z,99518.13
2022-09-28T15:11:11.466Z,99521.34
2022-09-28T15:13:41.872Z,99520.51
2022-09-28T15:16:12.344Z,99521.83
2022-09-28T15:18:42.765Z,99522.13
2022-09-28T15:21:13.214Z,99524.94
2022-09-28T15:23:43.363Z,99527.73
2022-09-28T15:26:14.354Z,99535.15
2022-09-28T15:28:44.184Z,99534.23
2022-09-28T15:31:14.761Z,99537.48
2022-09-28T15:33:45.089Z,99538.20
2022-09-28T15:36:15.676Z,99541.29
2022-09-28T15:38:46.041Z,99549.00
2022-09-28T15:41:16.467Z,99549.66
2022-09-28T15:43:46.956Z,99552.98
2022-09-28T15:46:17.540Z,99552.97
2022-09-28T15:48:47.861Z,99551.28
2022-09-28T15:51:18.445Z,99553.98
2022-09-28T15:53:48.775Z,99559.20
2022-09-28T15:56:19.255Z,99561.40
2022-09-28T15:58:49.721Z,99565.18
2022-09-28T16:01:20.295Z,99569.30
2022-09-28T16:03:50.656Z,99572.99
2022-09-28T16:06:21.208Z,99573.91
2022-09-28T16:08:51.631Z,99576.92
2022-09-28T16:11:22.069Z,99579.26
2022-09-28T16:13:52.558Z,99580.48
2022-09-28T16:16:23.070Z,99578.87
2022-09-28T16:18:53.422Z,99581.72
2022-09-28T16:21:23.902Z,99581.70
2022-09-28T16:23:54.295Z,99580.92
2022-09-28T16:26:24.815Z,99582.15
2022-09-28T16:28:55.209Z,99577.55
2022-09-28T16:31:25.735Z,99581.73
2022-09-28T16:33:56.101Z,99589.24
2022-09-28T16:36:26.632Z,99594.14
2022-09-28T16:38:57.049Z,99592.34
2022-09-28T16:41:27.493Z,99591.25
2022-09-28T16:43:57.943Z,99593.31
2022-09-28T16:46:28.575Z,99595.33
2022-09-28T16:48:58.868Z,99595.02
2022-09-28T16:51:29.372Z,99595.53
2022-09-28T16:53:59.876Z,99595.41
2022-09-28T16:56:30.405Z,99594.19
2022-09-28T16:59:00.950Z,99594.55
2022-09-28T17:01:31.688Z,99595.00
2022-09-28T17:04:02.193Z,99595.28
2022-09-28T17:06:32.462Z,99597.49
2022-09-28T17:09:03.085Z,99598.19
2022-09-28T17:11:33.766Z,99598.25
2022-09-28T17:14:04.170Z,99595.43
2022-09-28T17:19:04.825Z,99596.64
2022-09-28T17:21:35.284Z,99599.18
2022-09-28T17:24:05.720Z,99601.09
2022-09-28T17:26:36.171Z,99601.80
2022-09-28T17:29:06.621Z,99606.35
2022-09-28T17:31:37.185Z,99606.47
2022-09-28T17:34:07.475Z,99607.34
2022-09-28T17:36:37.937Z,99613.08
2022-09-28T17:39:08.323Z,99615.07
2022-09-28T17:41:38.767Z,99615.46
2022-09-28T17:44:09.174Z,99620.50
2022-09-28T17:46:39.744Z,99621.68
2022-09-28T17:49:10.033Z,99623.71
2022-09-28T17:51:40.455Z,99620.33
2022-09-28T17:54:10.874Z,99619.09
2022-09-28T17:56:41.304Z,99622.13
2022-09-28T17:59:11.863Z,99622.85
2022-09-28T18:01:42.313Z,99625.06
2022-09-28T18:04:19.190Z,99628.05
2022-09-28T18:06:43.046Z,99626.82
2022-09-28T18:09:13.457Z,99627.96
2022-09-28T18:11:43.912Z,99625.87
2022-09-28T18:14:14.342Z,99628.44
2022-09-28T18:16:44.817Z,99629.62
2022-09-28T18:19:15.228Z,99631.51
2022-09-28T18:21:45.694Z,99630.66
2022-09-28T18:24:16.208Z,99632.77
2022-09-28T18:26:46.621Z,99634.62
2022-09-28T18:29:17.174Z,99633.79
2022-09-28T18:31:47.722Z,99636.95
2022-09-28T18:34:18.110Z,99636.04
2022-09-28T18:36:48.567Z,99637.27
2022-09-28T18:39:19.149Z,99637.06
2022-09-28T18:41:49.177Z,99637.90
2022-09-28T18:44:19.341Z,99636.37
2022-09-28T18:46:49.962Z,99637.56
2022-09-28T18:49:20.537Z,99638.55
2022-09-28T18:51:50.904Z,99643.58
2022-09-28T18:54:21.293Z,99647.66
2022-09-28T18:56:51.879Z,99647.01
2022-09-28T18:59:22.461Z,99650.46
2022-09-28T19:01:53.071Z,99652.98
2022-09-28T19:04:23.333Z,99652.04
2022-09-28T19:06:53.846Z,99653.48
2022-09-28T19:09:24.336Z,99653.31
2022-09-28T19:11:54.863Z,99658.20
2022-09-28T19:14:25.371Z,99659.25
2022-09-28T19:16:55.898Z,99661.59
2022-09-28T19:19:26.391Z,99659.33
2022-09-28T19:21:56.937Z,99659.38
2022-09-28T19:24:27.425Z,99667.59
2022-09-28T19:26:58.088Z,99672.92
2022-09-28T19:29:28.466Z,99671.45
2022-09-28T19:31:59.037Z,99669.56
2022-09-28T19:34:29.542Z,99669.57
2022-09-28T19:37:00.099Z,99670.77
2022-09-28T19:39:30.631Z,99673.91
2022-09-28T19:42:01.189Z,99675.14
2022-09-28T19:44:31.691Z,99674.33
2022-09-28T19:47:02.377Z,99679.55
2022-09-28T19:49:32.772Z,99682.10
2022-09-28T19:52:14.576Z,99678.31
2022-09-28T19:54:36.503Z,99677.99
2022-09-28T19:57:04.434Z,99682.93
2022-09-28T19:59:35.003Z,99689.78
2022-09-28T20:02:05.565Z,99692.44
2022-09-28T20:04:36.143Z,99692.74
2022-09-28T20:07:06.684Z,99692.95
2022-09-28T20:09:37.178Z,99692.64
2022-09-28T20:12:07.757Z,99695.42
2022-09-28T20:14:40.478Z,99693.47
2022-09-28T20:17:08.892Z,99696.39
2022-09-28T20:19:39.414Z,99699.75
2022-09-28T20:22:09.928Z,99698.32
2022-09-28T20:24:40.472Z,99698.18
2022-09-28T20:27:11.026Z,99696.74
2022-09-28T20:29:41.623Z,99697.94
2022-09-28T20:32:12.150Z,99698.39
2022-09-28T20:34:42.667Z,99699.25
2022-09-28T20:37:13.464Z,99700.60
2022-09-28T20:39:45.051Z,99702.89
2022-09-28T20:42:14.356Z,99703.95
2022-09-28T20:44:44.824Z,99705.13
2022-09-28T20:47:15.402Z,99703.51
2022-09-28T20:49:45.920Z,99703.66
2022-09-28T20:52:16.534Z,99706.36
2022-09-28T20:54:47.083Z,99707.24
2022-09-28T20:57:17.792Z,99707.60
2022-09-28T20:59:53.617Z,99708.49
2022-09-28T21:02:18.792Z,99710.27
2022-09-28T21:04:49.275Z,99712.95
2022-09-28T21:07:19.849Z,99717.30
2022-09-28T21:09:50.447Z,99714.05
2022-09-28T21:12:21.076Z,99717.77
2022-09-28T21:14:51.550Z,99718.72
2022-09-28T21:17:22.153Z,99716.63
2022-09-28T21:19:52.688Z,99716.19
2022-09-28T21:22:23.302Z,99719.55
2022-09-28T21:24:53.519Z,99720.21
2022-09-28T21:27:24.065Z,99720.68
2022-09-28T21:29:54.671Z,99722.52
2022-09-28T21:32:25.257Z,99724.28
2022-09-28T21:34:55.769Z,99728.80
2022-09-28T21:37:26.169Z,99734.64
2022-09-28T21:39:56.686Z,99738.96
2022-09-28T21:42:27.337Z,99738.57
2022-09-28T21:44:59.477Z,99738.61
2022-09-28T21:47:28.425Z,99742.56
2022-09-28T21:49:59.010Z,99742.39
2022-09-28T21:52:29.628Z,99744.77
2022-09-28T21:55:00.237Z,99747.87
2022-09-28T21:57:30.831Z,99751.18
2022-09-28T22:00:01.458Z,99755.00
2022-09-28T22:02:32.059Z,99757.32
2022-09-28T22:05:02.620Z,99759.22
2022-09-28T22:07:33.237Z,99763.67
2022-09-28T22:10:03.806Z,99768.60
2022-09-28T22:12:34.436Z,99769.67
2022-09-28T22:15:05.016Z,99770.65
2022-09-28T22:17:35.664Z,99770.49
2022-09-28T22:20:06.230Z,99771.66
2022-09-28T22:22:36.891Z,99772.34
2022-09-28T22:25:07.566Z,99769.38
2022-09-28T22:27:38.083Z,99770.69
2022-09-28T22:30:08.710Z,99774.42
2022-09-28T22:32:39.092Z,99775.28
2022-09-28T22:35:09.609Z,99773.99
2022-09-28T22:37:40.241Z,99777.91
2022-09-28T22:40:10.938Z,99777.51
2022-09-28T22:42:41.460Z,99781.18
2022-09-28T22:45:12.060Z,99780.56
2022-09-28T22:47:42.718Z,99775.80
2022-09-28T22:50:13.363Z,99777.19
2022-09-28T22:52:43.931Z,99777.27
2022-09-28T22:55:14.536Z,99774.10
2022-09-28T22:57:45.166Z,99780.83
2022-09-28T23:00:15.774Z,99781.81
2022-09-28T23:02:46.531Z,99783.96
2022-09-28T23:05:17.041Z,99779.02
2022-09-28T23:07:47.674Z,99783.43
2022-09-28T23:10:18.277Z,99782.27
2022-09-28T23:12:48.930Z,99780.46
2022-09-28T23:15:19.189Z,99778.91
2022-09-28T23:17:49.836Z,99782.00
2022-09-28T23:20:20.431Z,99784.50
2022-09-28T23:22:51.067Z,99784.52
2022-09-28T23:25:21.683Z,99781.25
2022-09-28T23:27:52.331Z,99781.65
2022-09-28T23:30:22.956Z,99784.15
2022-09-28T23:32:53.595Z,99785.63
2022-09-28T23:35:24.196Z,99790.74
2022-09-28T23:37:54.674Z,99790.76
2022-09-28T23:40:25.259Z,99792.06
2022-09-28T23:42:55.949Z,99792.10
2022-09-28T23:45:26.178Z,99787.43
2022-09-28T23:47:56.580Z,99789.06
2022-09-28T23:50:27.078Z,99789.21
2022-09-28T23:52:57.704Z,99787.50
2022-09-28T23:55:28.329Z,99788.83
2022-09-28T23:57:58.964Z,99789.17
